Airfield :
LOGIN :

Register | Disclaimer

   EN    FR    IT 

 










Legend :    VFR   Marginal VFR   IFR   Intensive IFR   Very Intensive IFR
Visi :
Ceiling :
>= 8 km
>= 3000ft
5 to 8 km
1000 to 3000 ft
1500m to 5 km
500 to 1000 ft
800 to 1500m
200 to 500 ft
< 800m
< 200 ft
Symbols :   Thunderstorms  Fog  Heavy snow  Heavy precipitations  Wind > 20 kt
SIGMETs :     Misc.  Thunderstorms  Icing  Turbulence  Mountain Waves  Volcanic Ashes






- Airport Elevation : 120 ft
- IATA code : MME


EGNV - Durham Tees valley

CURRENT METAR :
  • 231420Z 28024G34KT 9999 FEW030 07/M00 Q1012

EXPIRED METARs :
  • 231350Z 27021KT 9999 FEW030 06/00 Q1011
  • 231320Z 28023G35KT 9999 FEW028 07/M00 Q1011
  • 231250Z 27022G33KT 9999 FEW032 06/00 Q1010
  • 231220Z 28017G27KT 9999 FEW028 06/01 Q1010
  • 231150Z 27013G23KT 250V310 9999 VCSH FEW012 05/02 Q1010

TAF TAF EGNV
Valid from the 23 at 15:00 until the 23 at 22:00 UTC


231358Z 2315/2322 27018G28KT 9999 FEW030
BECMG 2316/2319 27012KT
BECMG 2320/2322 20005KT
ATIS : +44 9012 018 111



MET'MAP, your aeronautical weather chart ! - Copyright ORBIFLY December 2007 - Disclaimer

ORBIFLY MET'MAP TEAM :

Programming & Development : Alexandra Zaïnal
Concept & original design : Baudouin d'Aumeries
Assistance for programming : Marc-Olivier Méhu
Technical & hardware support : Manuel Goepfert

Contact : metmap@orbifly.com




SOURCES & CREDITS :

   NOAA